createdAt,value
2022-12-08T00:04:07.581Z,0
2022-12-08T00:09:14.050Z,0
2022-12-08T00:14:20.517Z,0
2022-12-08T00:19:27.578Z,0
2022-12-08T00:24:34.747Z,0
2022-12-08T00:29:41.540Z,0
2022-12-08T00:34:48.631Z,0
2022-12-08T00:39:55.547Z,0
2022-12-08T00:45:02.577Z,0
2022-12-08T00:50:09.623Z,0
2022-12-08T00:55:16.581Z,0
2022-12-08T01:00:23.581Z,0
2022-12-08T01:05:30.573Z,0
2022-12-08T01:10:37.594Z,0
2022-12-08T01:15:44.626Z,0
2022-12-08T01:20:51.602Z,0
2022-12-08T01:25:59.461Z,0
2022-12-08T01:31:07.261Z,0
2022-12-08T01:36:15.080Z,0
2022-12-08T01:41:22.937Z,0
2022-12-08T01:46:29.565Z,0
2022-12-08T01:51:35.995Z,0
2022-12-08T01:56:42.457Z,0
2022-12-08T02:01:48.962Z,0
2022-12-08T02:06:55.393Z,0
2022-12-08T02:12:01.884Z,0
2022-12-08T02:17:08.370Z,0
2022-12-08T02:22:13.758Z,0
2022-12-08T02:32:25.926Z,0
2022-12-08T02:37:32.013Z,0
2022-12-08T02:42:38.111Z,0
2022-12-08T02:47:44.187Z,0
2022-12-08T02:52:50.289Z,0
2022-12-08T02:57:56.379Z,0
2022-12-08T03:03:02.458Z,0
2022-12-08T03:08:08.551Z,0
2022-12-08T03:13:14.644Z,0
2022-12-08T03:18:20.735Z,0
2022-12-08T03:23:26.831Z,0
2022-12-08T03:28:32.913Z,0
2022-12-08T03:33:39.016Z,0
2022-12-08T03:38:45.083Z,0
2022-12-08T03:43:51.191Z,0
2022-12-08T03:48:57.283Z,0
2022-12-08T03:54:03.487Z,0
2022-12-08T03:59:09.443Z,0
2022-12-08T04:04:15.526Z,0
2022-12-08T04:09:21.621Z,0
2022-12-08T04:14:27.709Z,0
2022-12-08T04:19:33.795Z,0
2022-12-08T04:24:39.938Z,0
2022-12-08T04:29:46.040Z,0
2022-12-08T04:34:52.184Z,0
2022-12-08T04:39:58.350Z,0
2022-12-08T04:45:04.480Z,0
2022-12-08T04:50:10.638Z,0
2022-12-08T04:55:16.786Z,0
2022-12-08T05:00:22.949Z,0
2022-12-08T05:10:35.248Z,0
2022-12-08T05:15:41.396Z,140
2022-12-08T05:20:47.590Z,140
2022-12-08T05:25:53.730Z,140
2022-12-08T05:30:59.953Z,140
2022-12-08T05:36:06.200Z,136
2022-12-08T05:41:12.447Z,0
2022-12-08T05:46:18.652Z,0
2022-12-08T05:51:24.901Z,0
2022-12-08T05:56:31.164Z,0
2022-12-08T06:01:37.435Z,0
2022-12-08T06:06:43.769Z,0
2022-12-08T06:11:49.953Z,0
2022-12-08T06:16:56.283Z,0
2022-12-08T06:22:02.528Z,0
2022-12-08T06:27:08.750Z,0
2022-12-08T06:32:15.037Z,0
2022-12-08T06:37:21.272Z,0
2022-12-08T06:42:27.753Z,0
2022-12-08T06:47:34.255Z,0
2022-12-08T06:52:40.759Z,4
2022-12-08T07:02:53.654Z,4
2022-12-08T07:08:00.185Z,4
2022-12-08T07:13:06.589Z,4
2022-12-08T07:18:13.069Z,12
2022-12-08T07:23:19.511Z,16
2022-12-08T07:28:25.985Z,16
2022-12-08T07:33:32.465Z,16
2022-12-08T07:38:39.043Z,32
2022-12-08T07:48:52.402Z,52
2022-12-08T07:53:59.404Z,52
2022-12-08T07:59:06.412Z,48
2022-12-08T08:04:13.554Z,32
2022-12-08T08:09:20.420Z,24
2022-12-08T08:14:27.522Z,36
2022-12-08T08:19:34.580Z,28
2022-12-08T08:24:41.450Z,20
2022-12-08T08:29:48.498Z,56
2022-12-08T08:34:55.544Z,92
2022-12-08T08:40:02.501Z,148
2022-12-08T08:45:09.476Z,108
2022-12-08T08:50:16.558Z,80
2022-12-08T08:55:24.378Z,92
2022-12-08T09:00:32.219Z,132
2022-12-08T09:05:40.125Z,152
2022-12-08T09:10:47.854Z,164
2022-12-08T09:15:55.607Z,164
2022-12-08T09:21:03.579Z,192
2022-12-08T09:26:11.375Z,180
2022-12-08T09:31:19.157Z,152
2022-12-08T09:36:27.013Z,152
2022-12-08T09:41:34.842Z,172
2022-12-08T09:46:42.669Z,180
2022-12-08T09:51:50.473Z,196
2022-12-08T09:56:58.225Z,204
2022-12-08T10:02:06.051Z,204
2022-12-08T10:07:13.878Z,200
2022-12-08T10:12:21.722Z,160
2022-12-08T10:17:29.547Z,104
2022-12-08T10:22:37.362Z,108
2022-12-08T10:27:45.197Z,168
2022-12-08T10:32:53.075Z,196
2022-12-08T10:38:00.884Z,188
2022-12-08T10:43:08.719Z,168
2022-12-08T10:48:16.508Z,124
2022-12-08T10:58:32.156Z,244
2022-12-08T11:03:40.138Z,256
2022-12-08T11:08:47.830Z,252
2022-12-08T11:13:55.636Z,252
2022-12-08T11:19:03.469Z,236
2022-12-08T11:24:11.289Z,208
2022-12-08T11:29:19.138Z,208
2022-12-08T11:34:26.959Z,204
2022-12-08T11:39:34.781Z,236
2022-12-08T11:44:42.606Z,240
2022-12-08T11:49:50.427Z,232
2022-12-08T11:54:58.263Z,240
2022-12-08T12:00:06.091Z,252
2022-12-08T12:05:13.963Z,268
2022-12-08T12:10:21.745Z,236
2022-12-08T12:15:29.581Z,204
2022-12-08T12:20:37.409Z,224
2022-12-08T12:25:45.245Z,208
2022-12-08T12:30:53.059Z,200
2022-12-08T12:36:00.893Z,212
2022-12-08T12:41:08.722Z,292
2022-12-08T12:46:16.642Z,308
2022-12-08T12:51:22.772Z,264
2022-12-08T12:56:28.900Z,196
2022-12-08T13:01:33.968Z,192
2022-12-08T13:06:40.077Z,184
2022-12-08T13:11:46.145Z,208
2022-12-08T13:16:52.242Z,184
2022-12-08T13:21:58.333Z,168
2022-12-08T13:27:04.425Z,184
2022-12-08T13:32:10.533Z,180
2022-12-08T13:37:16.641Z,172
2022-12-08T13:42:22.792Z,176
2022-12-08T13:47:28.770Z,164
2022-12-08T13:52:34.945Z,168
2022-12-08T13:57:41.008Z,164
2022-12-08T14:02:47.132Z,164
2022-12-08T14:12:59.363Z,140
2022-12-08T14:18:05.419Z,144
2022-12-08T14:23:11.469Z,148
2022-12-08T14:28:17.503Z,152
2022-12-08T14:33:23.636Z,156
2022-12-08T14:38:29.677Z,148
2022-12-08T14:43:35.815Z,148
2022-12-08T14:48:41.850Z,140
2022-12-08T14:53:48.111Z,140
2022-12-08T14:58:54.030Z,136
2022-12-08T15:04:00.122Z,140
2022-12-08T15:09:06.211Z,140
2022-12-08T15:14:12.413Z,140
2022-12-08T15:19:18.446Z,136
2022-12-08T15:24:24.601Z,136
2022-12-08T15:29:30.570Z,136
2022-12-08T15:34:36.674Z,136
2022-12-08T15:39:42.872Z,136
2022-12-08T15:44:48.861Z,136
2022-12-08T16:00:07.106Z,136
2022-12-08T16:05:13.204Z,136
2022-12-08T16:10:19.366Z,136
2022-12-08T16:15:25.501Z,136
2022-12-08T16:20:31.780Z,136
2022-12-08T16:25:37.817Z,136
2022-12-08T16:30:44.122Z,136
2022-12-08T16:35:50.180Z,136
2022-12-08T16:40:56.264Z,136
2022-12-08T16:46:02.495Z,136
2022-12-08T16:51:08.557Z,136
2022-12-08T16:56:14.815Z,136
2022-12-08T17:01:20.904Z,136
2022-12-08T17:06:27.014Z,136
2022-12-08T17:11:33.170Z,136
2022-12-08T17:16:39.515Z,136
2022-12-08T17:21:45.738Z,136
2022-12-08T17:26:51.182Z,136
2022-12-08T17:31:57.469Z,136
2022-12-08T17:37:03.629Z,136
2022-12-08T17:42:09.937Z,136
2022-12-08T17:47:16.191Z,136
2022-12-08T17:52:22.464Z,0
2022-12-08T17:57:28.674Z,0
2022-12-08T18:02:35.018Z,0
2022-12-08T18:07:41.205Z,0
2022-12-08T18:12:47.467Z,0
2022-12-08T18:17:53.730Z,0
2022-12-08T18:22:59.994Z,0
2022-12-08T18:28:06.259Z,0
2022-12-08T18:33:12.523Z,0
2022-12-08T18:38:18.806Z,0
2022-12-08T18:43:25.053Z,0
2022-12-08T18:48:31.317Z,0
2022-12-08T18:53:37.573Z,0
2022-12-08T18:58:43.845Z,0
2022-12-08T19:03:50.113Z,0
2022-12-08T19:08:56.380Z,0
2022-12-08T19:14:02.720Z,0
2022-12-08T19:19:08.904Z,0
2022-12-08T19:24:15.162Z,0
2022-12-08T19:29:21.488Z,0
2022-12-08T19:34:27.751Z,0
2022-12-08T19:39:34.012Z,0
2022-12-08T19:44:40.215Z,0
2022-12-08T19:49:46.506Z,0
2022-12-08T19:54:52.747Z,0
2022-12-08T19:59:59.017Z,0
2022-12-08T20:05:05.275Z,0
2022-12-08T20:10:11.537Z,0
2022-12-08T20:15:17.815Z,0
2022-12-08T20:20:24.076Z,0
2022-12-08T20:25:30.332Z,0
2022-12-08T20:30:36.593Z,0
2022-12-08T20:35:43.092Z,0
2022-12-08T20:40:49.543Z,0
2022-12-08T20:45:56.083Z,0
2022-12-08T20:51:02.475Z,0
2022-12-08T20:56:08.949Z,0
2022-12-08T21:01:15.422Z,0
2022-12-08T21:06:21.913Z,0
2022-12-08T21:11:28.373Z,0
2022-12-08T21:16:33.789Z,0
2022-12-08T21:21:39.924Z,0
2022-12-08T21:26:45.968Z,0
2022-12-08T21:31:52.023Z,0
2022-12-08T21:36:58.117Z,0
2022-12-08T21:42:04.219Z,0
2022-12-08T21:47:10.286Z,0
2022-12-08T21:52:16.448Z,0
2022-12-08T21:57:22.565Z,0
2022-12-08T22:07:34.671Z,0
2022-12-08T22:12:39.759Z,0
2022-12-08T22:17:45.874Z,0
2022-12-08T22:22:52.013Z,0
2022-12-08T22:27:58.086Z,0
2022-12-08T22:33:04.138Z,0
2022-12-08T22:38:10.305Z,0
2022-12-08T22:43:16.312Z,0
2022-12-08T22:48:22.399Z,0
2022-12-08T22:53:28.480Z,0
2022-12-08T22:58:34.569Z,0
2022-12-08T23:03:40.661Z,0
2022-12-08T23:08:46.743Z,0
2022-12-08T23:13:52.824Z,0
2022-12-08T23:18:58.932Z,0
2022-12-08T23:24:05.051Z,0
2022-12-08T23:29:11.093Z,0
2022-12-08T23:34:17.177Z,0
2022-12-08T23:39:23.272Z,0
2022-12-08T23:44:29.354Z,0
2022-12-08T23:49:35.549Z,0
2022-12-08T23:54:40.619Z,0
